createdAt,value
2022-11-28T00:01:28.066Z,11.10
2022-11-28T00:03:55.710Z,11.00
2022-11-28T00:06:23.341Z,10.90
2022-11-28T00:08:50.918Z,10.70
2022-11-28T00:11:18.580Z,10.60
2022-11-28T00:13:46.472Z,10.50
2022-11-28T00:16:17.216Z,10.50
2022-11-28T00:18:44.745Z,10.90
2022-11-28T00:21:14.494Z,10.60
2022-11-28T00:23:43.668Z,10.80
2022-11-28T00:26:18.603Z,11.10
2022-11-28T00:28:46.086Z,11.10
2022-11-28T00:31:19.551Z,10.60
2022-11-28T00:33:47.604Z,10.20
2022-11-28T00:36:15.346Z,10.30
2022-11-28T00:38:43.135Z,9.80
2022-11-28T00:41:22.799Z,10.10
2022-11-28T00:43:51.039Z,10.50
2022-11-28T00:46:19.655Z,10.20
2022-11-28T00:48:47.577Z,10.00
2022-11-28T00:51:18.395Z,10.60
2022-11-28T00:53:47.967Z,10.10
2022-11-28T00:56:19.178Z,10.20
2022-11-28T00:58:48.959Z,10.20
2022-11-28T01:01:20.126Z,10.30
2022-11-28T01:03:49.124Z,10.20
2022-11-28T01:06:32.270Z,10.10
2022-11-28T01:09:01.913Z,9.60
2022-11-28T01:11:30.190Z,9.60
2022-11-28T01:13:59.347Z,9.60
2022-11-28T01:16:28.062Z,9.80
2022-11-28T01:18:55.362Z,9.80
2022-11-28T01:21:22.737Z,9.40
2022-11-28T01:23:49.995Z,10.00
2022-11-28T01:26:28.758Z,9.40
2022-11-28T01:28:56.791Z,9.60
2022-11-28T01:31:26.264Z,10.40
2022-11-28T01:33:54.691Z,9.30
2022-11-28T01:36:22.736Z,9.30
2022-11-28T01:38:50.875Z,9.50
2022-11-28T01:41:22.129Z,9.40
2022-11-28T01:44:05.842Z,9.40
2022-11-28T01:46:34.187Z,9.10
2022-11-28T01:49:22.843Z,9.20
2022-11-28T01:51:54.541Z,9.20
2022-11-28T01:54:23.952Z,9.00
2022-11-28T01:56:58.724Z,9.10
2022-11-28T01:59:29.914Z,9.10
2022-11-28T02:01:57.206Z,9.80
2022-11-28T02:04:27.904Z,9.00
2022-11-28T02:06:55.615Z,8.90
2022-11-28T02:09:22.919Z,8.90
2022-11-28T02:12:08.933Z,9.30
2022-11-28T02:15:03.284Z,9.10
2022-11-28T02:17:55.543Z,9.00
2022-11-28T02:20:40.994Z,9.00
2022-11-28T02:23:08.181Z,9.00
2022-11-28T02:26:01.973Z,9.50
2022-11-28T02:28:35.207Z,8.90
2022-11-28T02:31:08.489Z,9.40
2022-11-28T02:33:58.432Z,8.90
2022-11-28T02:36:50.854Z,9.10
2022-11-28T02:39:52.515Z,9.00
2022-11-28T02:42:31.210Z,8.90
2022-11-28T02:45:13.188Z,9.00
2022-11-28T02:47:54.548Z,8.80
2022-11-28T02:50:37.156Z,9.20
2022-11-28T02:53:12.241Z,8.70
2022-11-28T02:55:41.235Z,9.00
2022-11-28T02:58:10.787Z,8.90
2022-11-28T03:00:39.973Z,9.10
2022-11-28T03:03:07.269Z,8.90
2022-11-28T03:06:07.918Z,9.00
2022-11-28T03:09:00.555Z,8.70
2022-11-28T03:11:50.024Z,8.60
2022-11-28T03:14:42.391Z,8.30
2022-11-28T03:17:34.665Z,8.60
2022-11-28T03:20:13.546Z,8.70
2022-11-28T03:22:43.197Z,8.60
2022-11-28T03:25:16.337Z,8.60
2022-11-28T03:27:49.258Z,9.00
2022-11-28T03:30:21.998Z,9.20
2022-11-28T03:32:53.316Z,8.80
2022-11-28T03:35:25.340Z,8.80
2022-11-28T03:37:58.786Z,8.90
2022-11-28T03:40:39.332Z,8.70
2022-11-28T03:43:11.684Z,9.00
2022-11-28T03:45:43.241Z,9.90
2022-11-28T03:48:15.225Z,8.70
2022-11-28T03:50:48.693Z,9.00
2022-11-28T03:53:26.041Z,8.90
2022-11-28T03:56:01.886Z,8.70
2022-11-28T03:58:39.010Z,8.70
2022-11-28T04:01:20.343Z,8.60
2022-11-28T04:03:53.816Z,8.60
2022-11-28T04:06:35.903Z,8.50
2022-11-28T04:09:12.981Z,8.50
2022-11-28T04:11:51.843Z,8.50
2022-11-28T04:14:32.639Z,8.60
2022-11-28T04:17:11.562Z,8.50
2022-11-28T04:19:43.718Z,8.80
2022-11-28T04:22:18.126Z,8.50
2022-11-28T04:25:10.078Z,8.40
2022-11-28T04:27:49.732Z,8.60
2022-11-28T04:30:17.199Z,8.60
2022-11-28T04:32:51.438Z,8.40
2022-11-28T04:35:28.772Z,8.40
2022-11-28T04:37:58.142Z,8.40
2022-11-28T04:40:27.487Z,8.50
2022-11-28T04:43:02.314Z,8.40
2022-11-28T04:45:38.222Z,8.40
2022-11-28T04:48:06.050Z,9.70
2022-11-28T04:51:14.253Z,8.30
2022-11-28T04:54:19.928Z,8.60
2022-11-28T04:56:55.849Z,8.30
2022-11-28T04:59:26.753Z,8.50
2022-11-28T05:01:55.861Z,8.60
2022-11-28T05:04:23.297Z,8.20
2022-11-28T05:06:50.613Z,8.60
2022-11-28T05:09:17.945Z,9.10
2022-11-28T05:11:45.309Z,8.10
2022-11-28T05:14:12.667Z,8.30
2022-11-28T05:16:40.073Z,8.10
2022-11-28T05:19:07.380Z,8.10
2022-11-28T05:21:34.723Z,8.10
2022-11-28T05:24:01.996Z,8.10
2022-11-28T05:26:32.228Z,8.00
2022-11-28T05:28:59.590Z,8.10
2022-11-28T05:31:26.946Z,7.80
2022-11-28T05:33:55.217Z,8.30
2022-11-28T05:36:23.143Z,8.00
2022-11-28T05:38:50.420Z,8.30
2022-11-28T05:41:31.526Z,8.20
2022-11-28T05:44:00.132Z,8.20
2022-11-28T05:46:28.905Z,8.20
2022-11-28T05:48:56.994Z,8.10
2022-11-28T05:51:24.828Z,8.40
2022-11-28T05:53:52.136Z,8.10
2022-11-28T05:56:20.692Z,8.20
2022-11-28T05:58:48.016Z,8.30
2022-11-28T06:01:24.356Z,8.10
2022-11-28T06:03:57.960Z,8.00
2022-11-28T06:06:26.966Z,8.10
2022-11-28T06:08:54.422Z,8.00
2022-11-28T06:11:24.072Z,8.10
2022-11-28T06:13:51.727Z,8.10
2022-11-28T06:16:24.602Z,8.10
2022-11-28T06:19:00.133Z,8.10
2022-11-28T06:21:28.954Z,8.10
2022-11-28T06:23:58.157Z,8.10
2022-11-28T06:26:27.863Z,8.00
2022-11-28T06:28:55.612Z,8.00
2022-11-28T06:31:25.698Z,8.00
2022-11-28T06:33:53.031Z,8.00
2022-11-28T06:36:20.961Z,8.00
2022-11-28T06:38:48.447Z,7.90
2022-11-28T06:41:18.302Z,7.90
2022-11-28T06:43:45.664Z,7.80
2022-11-28T06:46:19.099Z,7.80
2022-11-28T06:48:47.858Z,7.80
2022-11-28T06:51:16.128Z,7.80
2022-11-28T06:53:43.479Z,7.90
2022-11-28T06:56:14.152Z,7.90
2022-11-28T06:58:42.904Z,8.00
2022-11-28T07:01:13.655Z,8.00
2022-11-28T07:03:41.127Z,8.00
2022-11-28T07:06:08.758Z,8.00
2022-11-28T07:08:36.772Z,8.10
2022-11-28T07:11:25.508Z,8.10
2022-11-28T07:13:53.423Z,8.10
2022-11-28T07:16:26.554Z,8.10
2022-11-28T07:18:54.708Z,8.10
2022-11-28T07:21:22.487Z,8.20
2022-11-28T07:23:49.949Z,8.20
2022-11-28T07:26:19.251Z,8.20
2022-11-28T07:28:47.588Z,8.20
2022-11-28T07:31:25.609Z,8.20
2022-11-28T07:33:53.524Z,8.20
2022-11-28T07:36:23.361Z,8.20
2022-11-28T07:38:53.822Z,8.20
2022-11-28T07:41:26.259Z,8.10
2022-11-28T07:44:01.641Z,8.00
2022-11-28T07:46:31.029Z,8.00
2022-11-28T07:48:58.437Z,7.90
2022-11-28T07:51:28.624Z,7.90
2022-11-28T07:53:56.844Z,7.90
2022-11-28T07:56:35.143Z,8.20
2022-11-28T07:59:07.397Z,7.80
2022-11-28T08:01:35.988Z,7.80
2022-11-28T08:04:05.877Z,7.80
2022-11-28T08:06:37.073Z,7.80
2022-11-28T08:09:06.952Z,8.00
2022-11-28T08:11:35.125Z,8.50
2022-11-28T08:14:02.712Z,7.80
2022-11-28T08:16:30.692Z,7.80
2022-11-28T08:19:00.929Z,7.80
2022-11-28T08:21:31.198Z,7.90
2022-11-28T08:24:00.676Z,7.80
2022-11-28T08:26:31.173Z,7.80
2022-11-28T08:28:59.578Z,7.80
2022-11-28T08:31:30.504Z,8.00
2022-11-28T08:33:59.919Z,7.90
2022-11-28T08:36:29.203Z,7.80
2022-11-28T08:41:46.394Z,8.00
2022-11-28T08:44:13.881Z,8.00
2022-11-28T08:46:41.177Z,8.00
2022-11-28T08:49:08.509Z,8.00
2022-11-28T08:51:36.894Z,8.00
2022-11-28T08:54:04.336Z,8.10
2022-11-28T08:56:31.771Z,8.10
2022-11-28T08:59:00.044Z,8.00
2022-11-28T09:01:27.947Z,8.20
2022-11-28T09:03:56.268Z,8.20
2022-11-28T09:06:24.302Z,8.30
2022-11-28T09:08:52.345Z,8.30
2022-11-28T09:11:21.427Z,8.40
2022-11-28T09:13:49.097Z,8.90
2022-11-28T09:16:16.638Z,8.50
2022-11-28T09:18:43.954Z,8.40
2022-11-28T09:21:14.019Z,9.00
2022-11-28T09:23:42.848Z,8.30
2022-11-28T09:26:16.448Z,8.40
2022-11-28T09:28:44.476Z,8.50
2022-11-28T09:31:13.244Z,8.60
2022-11-28T09:33:40.999Z,8.60
2022-11-28T09:36:16.832Z,8.70
2022-11-28T09:38:44.552Z,8.90
2022-11-28T09:41:29.552Z,8.70
2022-11-28T09:44:08.073Z,8.90
2022-11-28T09:46:38.770Z,8.80
2022-11-28T09:49:25.624Z,8.80
2022-11-28T09:52:03.088Z,8.90
2022-11-28T09:54:52.069Z,9.00
2022-11-28T09:57:37.158Z,9.10
2022-11-28T10:00:06.179Z,9.20
2022-11-28T10:02:43.957Z,9.20
2022-11-28T10:05:24.790Z,9.30
2022-11-28T10:08:22.262Z,9.40
2022-11-28T10:11:10.443Z,9.40
2022-11-28T10:14:09.217Z,9.50
2022-11-28T10:16:33.771Z,9.60
2022-11-28T10:19:05.943Z,9.60
2022-11-28T10:21:44.661Z,9.70
2022-11-28T10:24:18.202Z,10.50
2022-11-28T10:26:53.474Z,9.80
2022-11-28T10:29:38.055Z,9.90
2022-11-28T10:32:06.541Z,10.00
2022-11-28T10:34:51.507Z,10.10
2022-11-28T10:37:26.549Z,10.10
2022-11-28T10:39:55.042Z,10.80
2022-11-28T10:42:40.242Z,10.30
2022-11-28T10:45:48.824Z,10.50
2022-11-28T10:48:39.544Z,10.60
2022-11-28T10:51:44.912Z,10.70
2022-11-28T10:54:40.737Z,10.70
2022-11-28T10:57:25.967Z,10.80
2022-11-28T11:00:18.228Z,10.80
2022-11-28T11:02:51.736Z,10.80
2022-11-28T11:05:34.819Z,10.90
2022-11-28T11:08:28.383Z,10.90
2022-11-28T11:11:07.766Z,10.90
2022-11-28T11:14:00.159Z,11.00
2022-11-28T11:16:47.531Z,11.10
2022-11-28T11:19:39.609Z,11.10
2022-11-28T11:22:12.438Z,11.30
2022-11-28T11:24:39.652Z,11.50
2022-11-28T11:27:21.924Z,11.60
2022-11-28T11:29:51.716Z,11.70
2022-11-28T11:32:30.309Z,11.90
2022-11-28T11:34:59.686Z,12.00
2022-11-28T11:37:34.665Z,12.20
2022-11-28T11:40:04.029Z,12.50
2022-11-28T11:42:32.981Z,12.80
2022-11-28T11:45:30.812Z,13.00
2022-11-28T11:47:58.548Z,13.40
2022-11-28T11:50:28.460Z,13.80
2022-11-28T11:53:12.709Z,13.90
2022-11-28T11:55:52.976Z,13.80
2022-11-28T11:58:24.139Z,13.70
2022-11-28T12:00:56.214Z,13.50
2022-11-28T12:03:40.845Z,13.70
2022-11-28T12:06:20.683Z,13.70
2022-11-28T12:08:54.368Z,13.70
2022-11-28T12:11:47.196Z,14.00
2022-11-28T12:14:32.173Z,14.20
2022-11-28T12:17:47.266Z,14.30
2022-11-28T12:20:33.162Z,14.10
2022-11-28T12:23:40.162Z,13.90
2022-11-28T12:26:35.581Z,13.80
2022-11-28T12:29:29.574Z,13.60
2022-11-28T12:32:38.421Z,13.30
2022-11-28T12:35:23.688Z,13.10
2022-11-28T12:38:11.677Z,12.80
2022-11-28T12:41:09.310Z,12.70
2022-11-28T12:44:06.106Z,12.60
2022-11-28T12:46:58.482Z,12.40
2022-11-28T12:49:45.889Z,12.30
2022-11-28T12:52:56.234Z,12.20
2022-11-28T12:55:43.937Z,12.00
2022-11-28T12:58:13.913Z,11.80
2022-11-28T13:01:03.232Z,11.80
2022-11-28T13:04:02.281Z,11.70
2022-11-28T13:07:11.566Z,11.70
2022-11-28T13:09:46.443Z,11.60
2022-11-28T13:12:28.745Z,11.60
2022-11-28T13:15:03.309Z,11.50
2022-11-28T13:17:48.453Z,11.80
2022-11-28T13:20:42.994Z,11.50
2022-11-28T13:23:51.120Z,11.50
2022-11-28T13:26:52.533Z,11.50
2022-11-28T13:29:33.120Z,11.40
2022-11-28T13:32:09.168Z,11.50
2022-11-28T13:34:37.270Z,11.50
2022-11-28T13:40:54.703Z,11.50
2022-11-28T13:43:37.636Z,11.50
2022-11-28T13:46:08.204Z,11.50
2022-11-28T13:51:33.864Z,11.60
2022-11-28T13:54:19.900Z,11.50
2022-11-28T13:57:04.631Z,11.40
2022-11-28T13:59:33.057Z,11.40
2022-11-28T14:02:03.585Z,11.30
2022-11-28T14:04:32.764Z,11.40
2022-11-28T14:07:06.691Z,11.40
2022-11-28T14:09:57.104Z,11.40
2022-11-28T14:12:59.208Z,11.30
2022-11-28T14:15:38.382Z,11.30
2022-11-28T14:18:24.731Z,11.40
2022-11-28T14:21:05.371Z,11.40
2022-11-28T14:23:46.276Z,11.30
2022-11-28T14:26:27.040Z,11.40
2022-11-28T14:28:54.746Z,11.30
2022-11-28T14:31:40.081Z,11.20
2022-11-28T14:34:45.334Z,11.30
2022-11-28T14:37:26.037Z,11.30
2022-11-28T14:39:55.172Z,11.60
2022-11-28T14:42:58.281Z,11.40
2022-11-28T14:45:31.655Z,11.40
2022-11-28T14:48:23.851Z,11.40
2022-11-28T14:50:59.428Z,11.50
2022-11-28T14:53:52.914Z,11.50
2022-11-28T14:56:27.918Z,11.60
2022-11-28T14:59:01.951Z,11.50
2022-11-28T15:01:55.710Z,11.60
2022-11-28T15:04:35.940Z,11.70
2022-11-28T15:07:07.785Z,11.70
2022-11-28T15:10:16.535Z,11.50
2022-11-28T15:13:21.353Z,11.70
2022-11-28T15:15:53.405Z,11.50
2022-11-28T15:18:23.245Z,11.70
2022-11-28T15:20:58.680Z,11.70
2022-11-28T15:23:30.413Z,11.60
2022-11-28T15:25:59.395Z,11.50
2022-11-28T15:28:29.136Z,11.40
2022-11-28T15:30:58.719Z,11.40
2022-11-28T15:33:27.396Z,11.30
2022-11-28T15:36:00.049Z,11.30
2022-11-28T15:38:30.789Z,11.30
2022-11-28T15:40:59.956Z,11.20
2022-11-28T15:43:27.924Z,11.10
2022-11-28T15:46:00.280Z,11.10
2022-11-28T15:48:39.740Z,11.00
2022-11-28T15:51:08.827Z,10.90
2022-11-28T15:53:42.272Z,10.80
2022-11-28T15:56:15.100Z,11.70
2022-11-28T15:58:44.404Z,10.90
2022-11-28T16:01:18.799Z,10.90
2022-11-28T16:04:06.949Z,10.80
2022-11-28T16:06:39.858Z,10.90
2022-11-28T16:09:19.382Z,10.80
2022-11-28T16:11:52.368Z,11.90
2022-11-28T16:14:32.860Z,10.80
2022-11-28T16:17:14.714Z,10.90
2022-11-28T16:19:43.548Z,10.80
2022-11-28T16:22:17.244Z,10.70
2022-11-28T16:24:47.526Z,10.70
2022-11-28T16:27:30.261Z,10.70
2022-11-28T16:29:57.710Z,10.70
2022-11-28T16:32:39.684Z,10.70
2022-11-28T16:35:12.296Z,10.60
2022-11-28T16:37:39.682Z,10.60
2022-11-28T16:40:14.943Z,10.60
2022-11-28T16:42:42.445Z,10.50
2022-11-28T16:45:22.074Z,10.40
2022-11-28T16:48:08.605Z,10.40
2022-11-28T16:50:37.013Z,10.40
2022-11-28T16:53:05.006Z,10.90
2022-11-28T16:55:32.422Z,10.30
2022-11-28T16:58:10.378Z,10.20
2022-11-28T17:00:42.358Z,10.20
2022-11-28T17:03:40.474Z,10.20
2022-11-28T17:06:28.475Z,10.20
2022-11-28T17:08:56.454Z,9.90
2022-11-28T17:11:28.531Z,10.00
2022-11-28T17:13:57.659Z,10.00
2022-11-28T17:16:27.583Z,10.00
2022-11-28T17:18:54.964Z,9.90
2022-11-28T17:21:48.482Z,9.70
2022-11-28T17:24:18.963Z,9.90
2022-11-28T17:26:46.940Z,10.60
2022-11-28T17:29:15.655Z,9.80
2022-11-28T17:31:46.766Z,10.00
2022-11-28T17:34:19.399Z,9.80
2022-11-28T17:36:47.829Z,9.80
2022-11-28T17:39:16.164Z,9.70
2022-11-28T17:41:44.485Z,9.80
2022-11-28T17:44:21.137Z,9.70
2022-11-28T17:46:50.310Z,9.80
2022-11-28T17:49:19.356Z,9.80
2022-11-28T17:51:46.784Z,9.90
2022-11-28T17:54:17.680Z,9.80
2022-11-28T17:56:46.285Z,9.80
2022-11-28T17:59:14.741Z,9.90
2022-11-28T18:01:44.159Z,9.80
2022-11-28T18:04:11.920Z,9.90
2022-11-28T18:06:39.215Z,9.90
2022-11-28T18:09:11.574Z,10.00
2022-11-28T18:11:41.491Z,10.20
2022-11-28T18:14:09.832Z,10.00
2022-11-28T18:16:39.633Z,10.10
2022-11-28T18:19:07.275Z,10.10
2022-11-28T18:21:34.614Z,10.20
2022-11-28T18:24:01.928Z,10.20
2022-11-28T18:26:30.561Z,10.30
2022-11-28T18:28:58.766Z,10.10
2022-11-28T18:31:28.753Z,10.20
2022-11-28T18:34:02.073Z,10.80
2022-11-28T18:36:35.533Z,10.10
2022-11-28T18:39:09.022Z,10.10
2022-11-28T18:41:36.762Z,10.10
2022-11-28T18:44:05.378Z,10.10
2022-11-28T18:46:33.963Z,10.00
2022-11-28T18:49:01.680Z,10.00
2022-11-28T18:51:34.385Z,9.80
2022-11-28T18:54:05.625Z,10.00
2022-11-28T18:56:34.969Z,9.90
2022-11-28T18:59:02.533Z,9.90
2022-11-28T19:01:34.431Z,9.90
2022-11-28T19:04:07.683Z,9.90
2022-11-28T19:06:37.507Z,9.80
2022-11-28T19:09:07.632Z,9.80
2022-11-28T19:11:35.747Z,9.80
2022-11-28T19:14:04.230Z,10.30
2022-11-28T19:16:33.610Z,9.70
2022-11-28T19:19:02.701Z,9.60
2022-11-28T19:21:32.799Z,9.60
2022-11-28T19:24:03.234Z,9.50
2022-11-28T19:26:31.453Z,9.40
2022-11-28T19:29:01.585Z,9.50
2022-11-28T19:31:31.820Z,9.50
2022-11-28T19:34:07.124Z,9.50
2022-11-28T19:36:39.359Z,9.40
2022-11-28T19:39:08.220Z,9.50
2022-11-28T19:41:35.725Z,9.40
2022-11-28T19:44:03.093Z,9.40
2022-11-28T19:46:35.506Z,9.40
2022-11-28T19:49:11.241Z,9.40
2022-11-28T19:51:38.568Z,9.30
2022-11-28T19:54:06.399Z,9.30
2022-11-28T19:56:34.060Z,9.20
2022-11-28T19:59:02.438Z,9.20
2022-11-28T20:01:29.937Z,9.10
2022-11-28T20:03:59.234Z,9.10
2022-11-28T20:06:30.253Z,9.10
2022-11-28T20:09:08.727Z,9.10
2022-11-28T20:11:40.575Z,9.10
2022-11-28T20:14:15.772Z,9.10
2022-11-28T20:16:43.781Z,9.80
2022-11-28T20:19:14.161Z,9.00
2022-11-28T20:21:42.390Z,8.90
2022-11-28T20:24:10.722Z,8.90
2022-11-28T20:26:41.901Z,8.70
2022-11-28T20:29:13.873Z,8.60
2022-11-28T20:31:45.358Z,8.70
2022-11-28T20:34:17.103Z,8.60
2022-11-28T20:36:45.560Z,8.30
2022-11-28T20:39:13.708Z,8.30
2022-11-28T20:41:41.061Z,8.50
2022-11-28T20:44:09.235Z,8.50
2022-11-28T20:46:36.547Z,8.30
2022-11-28T20:49:06.833Z,8.50
2022-11-28T20:51:35.744Z,7.40
2022-11-28T20:54:04.919Z,8.50
2022-11-28T20:56:51.557Z,8.60
2022-11-28T20:59:22.626Z,8.50
2022-11-28T21:01:50.050Z,8.50
2022-11-28T21:04:18.356Z,8.60
2022-11-28T21:06:47.236Z,8.60
2022-11-28T21:09:15.406Z,8.70
2022-11-28T21:11:59.396Z,8.70
2022-11-28T21:14:28.736Z,8.70
2022-11-28T21:16:56.907Z,8.80
2022-11-28T21:19:24.451Z,8.80
2022-11-28T21:21:51.951Z,8.80
2022-11-28T21:24:19.246Z,8.80
2022-11-28T21:26:52.969Z,8.70
2022-11-28T21:29:21.844Z,8.80
2022-11-28T21:31:49.265Z,8.50
2022-11-28T21:34:17.621Z,8.50
2022-11-28T21:36:45.248Z,8.50
2022-11-28T21:39:15.322Z,8.50
2022-11-28T21:41:42.838Z,8.50
2022-11-28T21:44:10.098Z,8.50
2022-11-28T21:46:37.585Z,8.40
2022-11-28T21:49:05.592Z,8.30
2022-11-28T21:51:35.920Z,8.50
2022-11-28T21:54:03.502Z,8.50
2022-11-28T21:56:31.806Z,8.50
2022-11-28T21:58:59.201Z,8.60
2022-11-28T22:01:26.569Z,8.60
2022-11-28T22:03:59.017Z,8.50
2022-11-28T22:06:29.829Z,8.50
2022-11-28T22:08:57.902Z,8.50
2022-11-28T22:11:25.620Z,8.50
2022-11-28T22:13:53.007Z,8.40
2022-11-28T22:16:23.630Z,8.40
2022-11-28T22:18:53.598Z,8.30
2022-11-28T22:21:50.433Z,8.80
2022-11-28T22:24:09.114Z,8.30
2022-11-28T22:26:36.704Z,8.20
2022-11-28T22:29:04.516Z,8.30
2022-11-28T22:31:33.012Z,8.30
2022-11-28T22:34:00.416Z,8.30
2022-11-28T22:36:28.809Z,8.30
2022-11-28T22:38:58.937Z,8.40
2022-11-28T22:41:29.349Z,8.30
2022-11-28T22:44:01.162Z,8.30
2022-11-28T22:46:30.799Z,8.30
2022-11-28T22:49:00.783Z,8.30
2022-11-28T22:51:29.417Z,8.30
2022-11-28T22:53:59.430Z,8.30
2022-11-28T22:56:29.079Z,8.20
2022-11-28T22:58:58.745Z,8.40
2022-11-28T23:01:30.103Z,8.40
2022-11-28T23:03:57.773Z,8.40
2022-11-28T23:06:30.004Z,8.20
2022-11-28T23:08:59.090Z,8.50
2022-11-28T23:11:30.859Z,8.50
2022-11-28T23:14:00.534Z,8.50
2022-11-28T23:16:33.506Z,8.60
2022-11-28T23:19:04.169Z,8.40
2022-11-28T23:21:35.708Z,8.50
2022-11-28T23:24:05.632Z,8.40
2022-11-28T23:26:34.260Z,8.50
2022-11-28T23:29:04.538Z,8.50
2022-11-28T23:31:34.090Z,8.40
2022-11-28T23:34:02.231Z,8.50
2022-11-28T23:36:36.992Z,8.50
2022-11-28T23:39:11.647Z,8.70
2022-11-28T23:41:38.940Z,8.60
2022-11-28T23:44:06.340Z,8.70
2022-11-28T23:46:34.543Z,8.60
2022-11-28T23:49:01.878Z,8.70
2022-11-28T23:51:29.207Z,8.40
2022-11-28T23:53:56.469Z,8.50
2022-11-28T23:56:26.232Z,8.50
2022-11-28T23:58:55.508Z,8.40
